KGDV/GDV METAR and TAF weather

Enter ICAO airport designator
Station Type Date Time Source
KGDV METAR 2019/10/15 21:56 UTC NOAA

KGDV 152156Z AUTO VRB05KT 10SM FEW044 09/M02 A3022 RMK AO2 SLP249 T00891022


Station Type Date Time Source
KGDV Decoded METAR 2019/10/15 21:56 UTC NOAA

Glendive, Dawson Community Airport, MT, United States (KGDV) 47-08N 104-48W
Oct 15, 2019 - 05:56 PM EDT / 2019.10.15 2156 UTC
Wind: Variable at 6 MPH (5 KT):0
Visibility: 10 mile(s):0
Sky conditions: mostly clear
Temperature: 48.0 F (8.9 C)
Dew Point: 28.0 F (-2.2 C)
Relative Humidity: 45%
Pressure (altimeter): 30.22 in. Hg (1023 hPa)
ob: KGDV 152156Z AUTO VRB05KT 10SM FEW044 09/M02 A3022 RMK AO2 SLP249 T00891022
cycle: 22

Station Type Date Time Source
KGDV TAF 2019/10/15 18:24 UTC NOAA

TAF KGDV 151722Z 1518/1618 32009KT P6SM FEW020 SCT045
FM160000 00000KT P6SM FEW120
FM161700 21010KT P6SM FEW120

Example: see airport list